sensor_id;sensor_type;location;lat;lon;timestamp;pressure;altitude;pressure_sealevel;temperature;humidity
78383;BME280;67668;52.294;4.692;2023-08-20T00:00:05;102136.88;;;20.85;64.13
78383;BME280;67668;52.294;4.692;2023-08-20T00:02:33;102139.94;;;20.82;64.26
78383;BME280;67668;52.294;4.692;2023-08-20T00:05:01;102134.91;;;20.79;64.39
78383;BME280;67668;52.294;4.692;2023-08-20T00:07:29;102139.44;;;20.79;64.52
78383;BME280;67668;52.294;4.692;2023-08-20T00:09:54;102139.63;;;20.77;64.78
78383;BME280;67668;52.294;4.692;2023-08-20T00:12:19;102149.72;;;20.75;64.90
78383;BME280;67668;52.294;4.692;2023-08-20T00:14:57;102139.16;;;20.74;65.00
78383;BME280;67668;52.294;4.692;2023-08-20T00:17:41;102140.16;;;20.73;65.09
78383;BME280;67668;52.294;4.692;2023-08-20T00:20:08;102135.97;;;20.70;65.18
78383;BME280;67668;52.294;4.692;2023-08-20T00:22:42;102127.06;;;20.70;65.46
78383;BME280;67668;52.294;4.692;2023-08-20T00:25:08;102130.94;;;20.67;65.48
78383;BME280;67668;52.294;4.692;2023-08-20T00:27:34;102133.63;;;20.67;65.26
78383;BME280;67668;52.294;4.692;2023-08-20T00:29:59;102135.66;;;20.65;65.42
78383;BME280;67668;52.294;4.692;2023-08-20T00:32:25;102144.75;;;20.64;65.41
78383;BME280;67668;52.294;4.692;2023-08-20T00:34:50;102150.28;;;20.62;65.38
78383;BME280;67668;52.294;4.692;2023-08-20T00:37:15;102161.25;;;20.61;65.60
78383;BME280;67668;52.294;4.692;2023-08-20T00:39:41;102168.47;;;20.60;65.22
78383;BME280;67668;52.294;4.692;2023-08-20T00:42:07;102174.03;;;20.59;65.53
78383;BME280;67668;52.294;4.692;2023-08-20T00:44:33;102179.75;;;20.56;65.61
78383;BME280;67668;52.294;4.692;2023-08-20T00:47:04;102173.53;;;20.55;65.90
78383;BME280;67668;52.294;4.692;2023-08-20T00:49:31;102175.56;;;20.53;65.73
78383;BME280;67668;52.294;4.692;2023-08-20T00:51:57;102175.72;;;20.52;65.88
78383;BME280;67668;52.294;4.692;2023-08-20T00:54:23;102177.59;;;20.51;65.94
78383;BME280;67668;52.294;4.692;2023-08-20T00:56:49;102183.16;;;20.50;66.00
78383;BME280;67668;52.294;4.692;2023-08-20T00:59:16;102190.38;;;20.49;66.12
78383;BME280;67668;52.294;4.692;2023-08-20T01:01:43;102185.19;;;20.48;66.01
78383;BME280;67668;52.294;4.692;2023-08-20T01:04:08;102196.09;;;20.46;66.24
78383;BME280;67668;52.294;4.692;2023-08-20T01:07:24;102198.13;;;20.44;66.26
78383;BME280;67668;52.294;4.692;2023-08-20T01:12:48;102196.59;;;20.42;66.27
78383;BME280;67668;52.294;4.692;2023-08-20T01:15:14;102196.78;;;20.40;66.29
78383;BME280;67668;52.294;4.692;2023-08-20T01:17:41;102191.56;;;20.39;66.61
78383;BME280;67668;52.294;4.692;2023-08-20T01:20:10;102193.59;;;20.37;66.64
78383;BME280;67668;52.294;4.692;2023-08-20T01:26:12;102190.25;;;20.35;66.69
78383;BME280;67668;52.294;4.692;2023-08-20T01:28:41;102189.59;;;20.33;66.89
78383;BME280;67668;52.294;4.692;2023-08-20T01:31:08;102184.41;;;20.31;67.02
78383;BME280;67668;52.294;4.692;2023-08-20T01:33:35;102185.41;;;20.30;66.76
78383;BME280;67668;52.294;4.692;2023-08-20T01:36:01;102185.75;;;20.27;66.83
78383;BME280;67668;52.294;4.692;2023-08-20T01:38:26;102191.13;;;20.27;66.98
78383;BME280;67668;52.294;4.692;2023-08-20T01:40:52;102182.34;;;20.25;66.83
78383;BME280;67668;52.294;4.692;2023-08-20T01:43:18;102187.06;;;20.23;66.84
78383;BME280;67668;52.294;4.692;2023-08-20T01:45:50;102188.06;;;20.22;66.71
78383;BME280;67668;52.294;4.692;2023-08-20T01:48:15;102173.97;;;20.20;66.76
78383;BME280;67668;52.294;4.692;2023-08-20T01:50:40;102178.50;;;20.20;66.91
78383;BME280;67668;52.294;4.692;2023-08-20T01:53:06;102176.16;;;20.17;66.65
78383;BME280;67668;52.294;4.692;2023-08-20T01:55:31;102177.16;;;20.16;66.89
78383;BME280;67668;52.294;4.692;2023-08-20T01:57:57;102185.41;;;20.14;66.95
78383;BME280;67668;52.294;4.692;2023-08-20T02:00:22;102185.75;;;20.11;67.01
78383;BME280;67668;52.294;4.692;2023-08-20T02:02:48;102177.84;;;20.09;66.85
78383;BME280;67668;52.294;4.692;2023-08-20T02:05:13;102177.19;;;20.07;67.02
78383;BME280;67668;52.294;4.692;2023-08-20T02:07:39;102177.34;;;20.06;66.99
78383;BME280;67668;52.294;4.692;2023-08-20T02:10:04;102181.22;;;20.03;67.03
78383;BME280;67668;52.294;4.692;2023-08-20T02:12:30;102179.53;;;20.02;67.27
78383;BME280;67668;52.294;4.692;2023-08-20T02:14:55;102173.50;;;20.00;67.02
78383;BME280;67668;52.294;4.692;2023-08-20T02:17:21;102175.53;;;19.98;67.11
78383;BME280;67668;52.294;4.692;2023-08-20T02:19:46;102180.22;;;19.96;67.46
78383;BME280;67668;52.294;4.692;2023-08-20T02:22:12;102176.88;;;19.94;67.37
78383;BME280;67668;52.294;4.692;2023-08-20T02:24:37;102186.94;;;19.92;67.25
78383;BME280;67668;52.294;4.692;2023-08-20T02:27:02;102178.38;;;19.89;67.67
78383;BME280;67668;52.294;4.692;2023-08-20T02:29:28;102176.72;;;19.88;67.55
78383;BME280;67668;52.294;4.692;2023-08-20T02:31:54;102171.50;;;19.86;67.47
78383;BME280;67668;52.294;4.692;2023-08-20T02:34:19;102172.69;;;19.84;67.59
78383;BME280;67668;52.294;4.692;2023-08-20T02:36:45;102171.00;;;19.83;67.52
78383;BME280;67668;52.294;4.692;2023-08-20T02:39:10;102180.25;;;19.80;67.85
78383;BME280;67668;52.294;4.692;2023-08-20T02:41:36;102173.38;;;19.78;67.82
78383;BME280;67668;52.294;4.692;2023-08-20T02:44:02;102177.91;;;19.77;68.11
78383;BME280;67668;52.294;4.692;2023-08-20T02:46:28;102190.69;;;19.75;67.84
78383;BME280;67668;52.294;4.692;2023-08-20T02:48:53;102187.28;;;19.73;68.08
78383;BME280;67668;52.294;4.692;2023-08-20T02:51:18;102189.31;;;19.71;67.87
78383;BME280;67668;52.294;4.692;2023-08-20T02:53:44;102191.31;;;19.69;68.12
78383;BME280;67668;52.294;4.692;2023-08-20T02:56:09;102193.34;;;19.67;68.23
78383;BME280;67668;52.294;4.692;2023-08-20T02:58:35;102200.75;;;19.65;68.02
78383;BME280;67668;52.294;4.692;2023-08-20T03:01:00;102206.28;;;19.64;68.33
78383;BME280;67668;52.294;4.692;2023-08-20T03:03:26;102212.81;;;19.61;68.40
78383;BME280;67668;52.294;4.692;2023-08-20T03:05:51;102210.28;;;19.59;68.43
78383;BME280;67668;52.294;4.692;2023-08-20T03:08:17;102208.78;;;19.57;68.27
78383;BME280;67668;52.294;4.692;2023-08-20T03:10:42;102216.84;;;19.57;68.44
78383;BME280;67668;52.294;4.692;2023-08-20T03:13:07;102214.50;;;19.54;68.65
78383;BME280;67668;52.294;4.692;2023-08-20T03:15:33;102210.31;;;19.51;68.37
78383;BME280;67668;52.294;4.692;2023-08-20T03:17:58;102214.00;;;19.50;68.44
78383;BME280;67668;52.294;4.692;2023-08-20T03:20:24;102206.09;;;19.49;68.65
78383;BME280;67668;52.294;4.692;2023-08-20T03:22:49;102210.97;;;19.45;68.52
78383;BME280;67668;52.294;4.692;2023-08-20T03:25:14;102215.50;;;19.45;68.48
78383;BME280;67668;52.294;4.692;2023-08-20T03:27:41;102214.81;;;19.43;68.63
78383;BME280;67668;52.294;4.692;2023-08-20T03:30:06;102211.47;;;19.41;68.51
78383;BME280;67668;52.294;4.692;2023-08-20T03:32:32;102213.44;;;19.39;68.59
78383;BME280;67668;52.294;4.692;2023-08-20T03:34:58;102216.28;;;19.37;68.66
78383;BME280;67668;52.294;4.692;2023-08-20T03:37:25;102215.44;;;19.37;68.65
78383;BME280;67668;52.294;4.692;2023-08-20T03:39:50;102203.34;;;19.33;68.60
78383;BME280;67668;52.294;4.692;2023-08-20T03:42:15;102215.13;;;19.32;68.74
78383;BME280;67668;52.294;4.692;2023-08-20T03:44:41;102225.16;;;19.30;69.04
78383;BME280;67668;52.294;4.692;2023-08-20T03:47:06;102223.66;;;19.27;68.83
78383;BME280;67668;52.294;4.692;2023-08-20T03:49:31;102221.13;;;19.26;68.85
78383;BME280;67668;52.294;4.692;2023-08-20T03:51:57;102225.81;;;19.24;68.75
78383;BME280;67668;52.294;4.692;2023-08-20T03:54:22;102224.31;;;19.21;68.96
78383;BME280;67668;52.294;4.692;2023-08-20T03:56:48;102223.63;;;19.19;68.78
78383;BME280;67668;52.294;4.692;2023-08-20T03:59:13;102223.81;;;19.18;69.00
78383;BME280;67668;52.294;4.692;2023-08-20T04:01:39;102223.28;;;19.14;68.74
78383;BME280;67668;52.294;4.692;2023-08-20T04:04:04;102227.81;;;19.14;68.86
78383;BME280;67668;52.294;4.692;2023-08-20T04:06:30;102235.19;;;19.12;69.09
78383;BME280;67668;52.294;4.692;2023-08-20T04:08:55;102237.19;;;19.09;68.98
78383;BME280;67668;52.294;4.692;2023-08-20T04:11:21;102239.19;;;19.07;68.73
78383;BME280;67668;52.294;4.692;2023-08-20T04:13:46;102243.91;;;19.05;68.98
78383;BME280;67668;52.294;4.692;2023-08-20T04:16:12;102240.53;;;19.03;68.96
78383;BME280;67668;52.294;4.692;2023-08-20T04:18:39;102239.88;;;19.01;68.72
78383;BME280;67668;52.294;4.692;2023-08-20T04:21:04;102241.03;;;18.99;68.84
78383;BME280;67668;52.294;4.692;2023-08-20T04:23:29;102246.56;;;18.97;68.87
78383;BME280;67668;52.294;4.692;2023-08-20T04:25:55;102247.72;;;18.95;68.80
78383;BME280;67668;52.294;4.692;2023-08-20T04:28:20;102246.22;;;18.92;68.94
78383;BME280;67668;52.294;4.692;2023-08-20T04:30:46;102246.34;;;18.91;69.07
78383;BME280;67668;52.294;4.692;2023-08-20T04:33:11;102243.16;;;18.87;69.04
78383;BME280;67668;52.294;4.692;2023-08-20T04:35:36;102248.53;;;18.87;68.84
78383;BME280;67668;52.294;4.692;2023-08-20T04:38:02;102248.84;;;18.84;68.92
78383;BME280;67668;52.294;4.692;2023-08-20T04:40:28;102258.06;;;18.82;69.00
78383;BME280;67668;52.294;4.692;2023-08-20T04:42:53;102254.69;;;18.80;69.03
78383;BME280;67668;52.294;4.692;2023-08-20T04:45:18;102254.84;;;18.78;68.89
78383;BME280;67668;52.294;4.692;2023-08-20T04:47:45;102254.16;;;18.76;69.21
78383;BME280;67668;52.294;4.692;2023-08-20T04:50:11;102255.19;;;18.75;69.18
78383;BME280;67668;52.294;4.692;2023-08-20T04:52:36;102255.50;;;18.72;69.18
78383;BME280;67668;52.294;4.692;2023-08-20T04:55:02;102259.19;;;18.71;69.35
78383;BME280;67668;52.294;4.692;2023-08-20T04:57:28;102254.97;;;18.69;69.38
78383;BME280;67668;52.294;4.692;2023-08-20T04:59:53;102258.66;;;18.68;69.61
78383;BME280;67668;52.294;4.692;2023-08-20T05:02:19;102256.44;;;18.63;69.59
78383;BME280;67668;52.294;4.692;2023-08-20T05:04:44;102259.13;;;18.63;69.92
78383;BME280;67668;52.294;4.692;2023-08-20T05:07:09;102253.94;;;18.62;69.83
78383;BME280;67668;52.294;4.692;2023-08-20T05:09:35;102255.91;;;18.59;70.27
78383;BME280;67668;52.294;4.692;2023-08-20T05:12:01;102260.47;;;18.59;70.02
78383;BME280;67668;52.294;4.692;2023-08-20T05:14:26;102257.09;;;18.57;70.52
78383;BME280;67668;52.294;4.692;2023-08-20T05:16:51;102259.94;;;18.55;70.39
78383;BME280;67668;52.294;4.692;2023-08-20T05:19:17;102258.06;;;18.56;70.55
78383;BME280;67668;52.294;4.692;2023-08-20T05:21:42;102256.56;;;18.53;70.76
78383;BME280;67668;52.294;4.692;2023-08-20T05:24:09;102259.25;;;18.53;71.01
78383;BME280;67668;52.294;4.692;2023-08-20T05:26:34;102259.41;;;18.52;71.27
78383;BME280;67668;52.294;4.692;2023-08-20T05:29:00;102263.94;;;18.51;71.36
78383;BME280;67668;52.294;4.692;2023-08-20T05:31:25;102262.25;;;18.50;71.47
78383;BME280;67668;52.294;4.692;2023-08-20T05:33:50;102254.34;;;18.49;71.78
78383;BME280;67668;52.294;4.692;2023-08-20T05:36:16;102265.06;;;18.49;71.96
78383;BME280;67668;52.294;4.692;2023-08-20T05:38:41;102262.38;;;18.49;71.78
78383;BME280;67668;52.294;4.692;2023-08-20T05:41:09;102260.69;;;18.48;71.94
78383;BME280;67668;52.294;4.692;2023-08-20T05:43:35;102262.53;;;18.47;72.05
78383;BME280;67668;52.294;4.692;2023-08-20T05:46:02;102263.69;;;18.45;72.38
78383;BME280;67668;52.294;4.692;2023-08-20T05:48:27;102265.22;;;18.47;72.38
78383;BME280;67668;52.294;4.692;2023-08-20T05:50:52;102257.16;;;18.47;72.60
78383;BME280;67668;52.294;4.692;2023-08-20T05:53:18;102253.63;;;18.47;72.65
78383;BME280;67668;52.294;4.692;2023-08-20T05:55:43;102257.16;;;18.47;72.95
78383;BME280;67668;52.294;4.692;2023-08-20T05:58:09;102252.66;;;18.48;73.06
78383;BME280;67668;52.294;4.692;2023-08-20T06:00:34;102256.03;;;18.50;73.34
78383;BME280;67668;52.294;4.692;2023-08-20T06:02:59;102256.03;;;18.50;73.44
78383;BME280;67668;52.294;4.692;2023-08-20T06:05:25;102254.19;;;18.50;73.66
78383;BME280;67668;52.294;4.692;2023-08-20T06:07:51;102254.91;;;18.52;73.50
78383;BME280;67668;52.294;4.692;2023-08-20T06:10:25;102259.25;;;18.53;74.27
78383;BME280;67668;52.294;4.692;2023-08-20T06:12:52;102253.72;;;18.55;73.94
78383;BME280;67668;52.294;4.692;2023-08-20T06:15:17;102261.59;;;18.56;73.86
78383;BME280;67668;52.294;4.692;2023-08-20T06:17:42;102263.81;;;18.61;74.22
78383;BME280;67668;52.294;4.692;2023-08-20T06:20:08;102264.34;;;18.65;74.73
78383;BME280;67668;52.294;4.692;2023-08-20T06:22:34;102268.22;;;18.70;74.97
78383;BME280;67668;52.294;4.692;2023-08-20T06:24:59;102266.56;;;18.77;75.00
78383;BME280;67668;52.294;4.692;2023-08-20T06:27:25;102269.47;;;18.84;74.95
78383;BME280;67668;52.294;4.692;2023-08-20T06:29:50;102264.16;;;18.92;75.61
78383;BME280;67668;52.294;4.692;2023-08-20T06:32:16;102267.34;;;19.03;78.06
78383;BME280;67668;52.294;4.692;2023-08-20T06:34:41;102264.22;;;19.16;78.49
78383;BME280;67668;52.294;4.692;2023-08-20T06:37:07;102270.66;;;19.31;79.99
78383;BME280;67668;52.294;4.692;2023-08-20T06:39:32;102273.56;;;19.46;77.52
78383;BME280;67668;52.294;4.692;2023-08-20T06:41:58;102283.00;;;19.58;77.63
78383;BME280;67668;52.294;4.692;2023-08-20T06:44:23;102272.09;;;19.76;79.95
78383;BME280;67668;52.294;4.692;2023-08-20T06:46:48;102275.97;;;19.89;77.93
78383;BME280;67668;52.294;4.692;2023-08-20T06:49:15;102284.03;;;20.05;78.91
78383;BME280;67668;52.294;4.692;2023-08-20T06:51:40;102278.31;;;20.25;77.81
78383;BME280;67668;52.294;4.692;2023-08-20T06:54:06;102272.94;;;20.41;77.92
78383;BME280;67668;52.294;4.692;2023-08-20T06:56:32;102273.25;;;20.54;75.49
78383;BME280;67668;52.294;4.692;2023-08-20T06:58:57;102286.31;;;20.73;76.21
78383;BME280;67668;52.294;4.692;2023-08-20T07:01:23;102287.41;;;20.95;75.96
78383;BME280;67668;52.294;4.692;2023-08-20T07:03:48;102282.47;;;21.14;74.89
78383;BME280;67668;52.294;4.692;2023-08-20T07:06:14;102281.00;;;21.35;75.84
78383;BME280;67668;52.294;4.692;2023-08-20T07:08:41;102283.63;;;21.51;72.67
78383;BME280;67668;52.294;4.692;2023-08-20T07:11:07;102295.31;;;21.66;73.51
78383;BME280;67668;52.294;4.692;2023-08-20T07:13:32;102295.56;;;21.79;70.94
78383;BME280;67668;52.294;4.692;2023-08-20T07:15:58;102294.44;;;21.96;71.16
78383;BME280;67668;52.294;4.692;2023-08-20T07:18:23;102305.75;;;22.14;71.31
78383;BME280;67668;52.294;4.692;2023-08-20T07:20:50;102304.56;;;22.32;69.56
78383;BME280;67668;52.294;4.692;2023-08-20T07:23:17;102308.78;;;22.49;68.83
78383;BME280;67668;52.294;4.692;2023-08-20T07:25:42;102305.09;;;22.64;70.68
78383;BME280;67668;52.294;4.692;2023-08-20T07:28:10;102303.06;;;22.81;68.14
78383;BME280;67668;52.294;4.692;2023-08-20T07:30:36;102311.19;;;22.96;69.36
78383;BME280;67668;52.294;4.692;2023-08-20T07:33:03;102318.63;;;23.08;66.95
78383;BME280;67668;52.294;4.692;2023-08-20T07:35:28;102315.06;;;23.23;66.18
78383;BME280;67668;52.294;4.692;2023-08-20T07:37:54;102317.19;;;23.42;65.70
78383;BME280;67668;52.294;4.692;2023-08-20T07:40:19;102320.06;;;23.55;63.85
78383;BME280;67668;52.294;4.692;2023-08-20T07:42:45;102330.56;;;23.64;63.03
78383;BME280;67668;52.294;4.692;2023-08-20T07:45:10;102326.13;;;23.78;63.13
78383;BME280;67668;52.294;4.692;2023-08-20T07:47:37;102328.78;;;23.93;62.47
78383;BME280;67668;52.294;4.692;2023-08-20T07:50:03;102331.41;;;24.07;61.94
78383;BME280;67668;52.294;4.692;2023-08-20T07:52:30;102326.13;;;24.21;62.05
78383;BME280;67668;52.294;4.692;2023-08-20T07:54:55;102329.63;;;24.36;62.11
78383;BME280;67668;52.294;4.692;2023-08-20T07:57:21;102328.25;;;24.53;61.52
78383;BME280;67668;52.294;4.692;2023-08-20T07:59:47;102329.44;;;24.72;60.97
78383;BME280;67668;52.294;4.692;2023-08-20T08:02:12;102323.31;;;24.84;58.90
78383;BME280;67668;52.294;4.692;2023-08-20T08:04:37;102324.41;;;24.96;58.94
78383;BME280;67668;52.294;4.692;2023-08-20T08:07:03;102324.47;;;25.09;57.98
78383;BME280;67668;52.294;4.692;2023-08-20T08:09:30;102329.94;;;25.23;57.82
78383;BME280;67668;52.294;4.692;2023-08-20T08:11:57;102332.53;;;25.37;57.47
78383;BME280;67668;52.294;4.692;2023-08-20T08:14:23;102336.16;;;25.51;59.51
78383;BME280;67668;52.294;4.692;2023-08-20T08:16:48;102324.50;;;25.63;57.35
78383;BME280;67668;52.294;4.692;2023-08-20T08:19:14;102336.63;;;25.74;56.59
78383;BME280;67668;52.294;4.692;2023-08-20T08:21:41;102343.34;;;25.85;56.83
78383;BME280;67668;52.294;4.692;2023-08-20T08:24:06;102337.28;;;25.96;56.05
78383;BME280;67668;52.294;4.692;2023-08-20T08:26:34;102347.53;;;26.07;56.10
78383;BME280;67668;52.294;4.692;2023-08-20T08:28:59;102344.69;;;26.22;56.42
78383;BME280;67668;52.294;4.692;2023-08-20T08:31:25;102346.56;;;26.34;56.48
78383;BME280;67668;52.294;4.692;2023-08-20T08:33:51;102351.97;;;26.47;55.17
78383;BME280;67668;52.294;4.692;2023-08-20T08:36:16;102349.88;;;26.56;54.03
78383;BME280;67668;52.294;4.692;2023-08-20T08:38:44;102347.13;;;26.69;54.90
78383;BME280;67668;52.294;4.692;2023-08-20T08:41:11;102352.56;;;26.82;54.60
78383;BME280;67668;52.294;4.692;2023-08-20T08:43:40;102353.38;;;26.96;56.33
78383;BME280;67668;52.294;4.692;2023-08-20T08:46:07;102356.69;;;27.11;55.31
78383;BME280;67668;52.294;4.692;2023-08-20T08:48:36;102359.97;;;27.26;54.80
78383;BME280;67668;52.294;4.692;2023-08-20T08:51:02;102349.47;;;27.36;52.38
78383;BME280;67668;52.294;4.692;2023-08-20T08:53:29;102356.59;;;27.44;51.22
78383;BME280;67668;52.294;4.692;2023-08-20T08:55:55;102354.84;;;27.56;51.29
78383;BME280;67668;52.294;4.692;2023-08-20T08:58:21;102351.44;;;27.73;51.48
78383;BME280;67668;52.294;4.692;2023-08-20T09:00:46;102359.28;;;27.88;49.21
78383;BME280;67668;52.294;4.692;2023-08-20T09:03:12;102363.78;;;28.01;48.84
78383;BME280;67668;52.294;4.692;2023-08-20T09:05:54;102362.69;;;28.15;48.15
78383;BME280;67668;52.294;4.692;2023-08-20T09:08:21;102367.81;;;28.30;48.63
78383;BME280;67668;52.294;4.692;2023-08-20T09:10:49;102367.47;;;28.44;46.95
78383;BME280;67668;52.294;4.692;2023-08-20T09:13:15;102360.84;;;28.58;46.22
78383;BME280;67668;52.294;4.692;2023-08-20T09:15:40;102359.53;;;28.67;45.78
78383;BME280;67668;52.294;4.692;2023-08-20T09:18:09;102365.91;;;28.80;47.25
78383;BME280;67668;52.294;4.692;2023-08-20T09:20:36;102368.50;;;28.93;46.08
78383;BME280;67668;52.294;4.692;2023-08-20T09:23:02;102374.19;;;29.09;46.72
78383;BME280;67668;52.294;4.692;2023-08-20T09:25:31;102372.38;;;29.21;46.93
78383;BME280;67668;52.294;4.692;2023-08-20T09:27:56;102361.56;;;29.33;43.95
78383;BME280;67668;52.294;4.692;2023-08-20T09:30:22;102368.28;;;29.49;45.73
78383;BME280;67668;52.294;4.692;2023-08-20T09:33:07;102365.97;;;29.64;44.44
78383;BME280;67668;52.294;4.692;2023-08-20T09:35:33;102369.34;;;29.77;43.95
78383;BME280;67668;52.294;4.692;2023-08-20T09:38:03;102371.53;;;29.87;43.25
78383;BME280;67668;52.294;4.692;2023-08-20T09:40:30;102373.22;;;30.00;42.98
78383;BME280;67668;52.294;4.692;2023-08-20T09:42:56;102382.69;;;30.15;43.64
78383;BME280;67668;52.294;4.692;2023-08-20T09:45:24;102386.25;;;30.27;43.58
78383;BME280;67668;52.294;4.692;2023-08-20T09:47:54;102383.56;;;30.39;43.80
78383;BME280;67668;52.294;4.692;2023-08-20T09:50:21;102382.06;;;30.55;43.51
78383;BME280;67668;52.294;4.692;2023-08-20T09:53:02;102384.53;;;30.68;42.56
78383;BME280;67668;52.294;4.692;2023-08-20T09:55:35;102381.00;;;30.79;42.84
78383;BME280;67668;52.294;4.692;2023-08-20T09:58:04;102389.28;;;30.84;41.58
78383;BME280;67668;52.294;4.692;2023-08-20T10:00:30;102383.00;;;30.95;42.18
78383;BME280;67668;52.294;4.692;2023-08-20T10:02:57;102387.16;;;31.09;41.26
78383;BME280;67668;52.294;4.692;2023-08-20T10:05:23;102386.31;;;31.20;40.37
78383;BME280;67668;52.294;4.692;2023-08-20T10:07:49;102376.16;;;31.33;40.83
78383;BME280;67668;52.294;4.692;2023-08-20T10:10:15;102378.59;;;31.46;41.71
78383;BME280;67668;52.294;4.692;2023-08-20T10:12:42;102382.19;;;31.58;40.22
78383;BME280;67668;52.294;4.692;2023-08-20T10:15:09;102379.72;;;31.73;40.15
78383;BME280;67668;52.294;4.692;2023-08-20T10:17:37;102378.94;;;31.89;40.84
78383;BME280;67668;52.294;4.692;2023-08-20T10:20:03;102379.25;;;32.04;41.45
78383;BME280;67668;52.294;4.692;2023-08-20T10:22:35;102388.94;;;32.12;37.88
78383;BME280;67668;52.294;4.692;2023-08-20T10:25:05;102394.28;;;32.18;39.97
78383;BME280;67668;52.294;4.692;2023-08-20T10:27:32;102386.50;;;32.27;39.74
78383;BME280;67668;52.294;4.692;2023-08-20T10:29:59;102389.91;;;32.34;38.50
78383;BME280;67668;52.294;4.692;2023-08-20T10:32:51;102382.06;;;32.43;37.96
78383;BME280;67668;52.294;4.692;2023-08-20T10:35:18;102381.06;;;32.49;37.99
78383;BME280;67668;52.294;4.692;2023-08-20T10:38:03;102386.84;;;32.64;37.74
78383;BME280;67668;52.294;4.692;2023-08-20T10:43:27;102383.91;;;32.87;38.10
78383;BME280;67668;52.294;4.692;2023-08-20T10:46:22;102373.13;;;33.02;36.85
78383;BME280;67668;52.294;4.692;2023-08-20T10:51:19;102371.06;;;33.09;36.39
78383;BME280;67668;52.294;4.692;2023-08-20T10:54:01;102374.16;;;33.18;36.90
78383;BME280;67668;52.294;4.692;2023-08-20T10:56:44;102372.66;;;33.27;35.29
78383;BME280;67668;52.294;4.692;2023-08-20T10:59:27;102380.41;;;33.35;35.57
78383;BME280;67668;52.294;4.692;2023-08-20T11:01:55;102375.38;;;33.49;36.92
78383;BME280;67668;52.294;4.692;2023-08-20T11:04:23;102374.84;;;33.52;34.47
78383;BME280;67668;52.294;4.692;2023-08-20T11:06:59;102369.44;;;33.57;34.12
78383;BME280;67668;52.294;4.692;2023-08-20T11:09:29;102369.56;;;33.67;37.20
78383;BME280;67668;52.294;4.692;2023-08-20T11:11:55;102378.25;;;33.81;37.26
78383;BME280;67668;52.294;4.692;2023-08-20T11:14:21;102384.69;;;33.96;34.67
78383;BME280;67668;52.294;4.692;2023-08-20T11:16:48;102386.44;;;34.07;36.01
78383;BME280;67668;52.294;4.692;2023-08-20T11:19:23;102383.19;;;34.10;35.02
78383;BME280;67668;52.294;4.692;2023-08-20T11:21:48;102393.72;;;34.18;35.56
78383;BME280;67668;52.294;4.692;2023-08-20T11:24:14;102386.63;;;34.22;34.83
78383;BME280;67668;52.294;4.692;2023-08-20T11:26:40;102384.47;;;34.30;33.55
78383;BME280;67668;52.294;4.692;2023-08-20T11:29:10;102385.66;;;34.39;34.52
78383;BME280;67668;52.294;4.692;2023-08-20T11:31:38;102382.41;;;34.47;33.77
78383;BME280;67668;52.294;4.692;2023-08-20T11:34:04;102385.75;;;34.54;33.07
78383;BME280;67668;52.294;4.692;2023-08-20T11:36:30;102384.97;;;34.58;34.30
78383;BME280;67668;52.294;4.692;2023-08-20T11:38:56;102381.72;;;34.61;33.98
78383;BME280;67668;52.294;4.692;2023-08-20T11:41:22;102378.19;;;34.66;32.11
78383;BME280;67668;52.294;4.692;2023-08-20T11:43:49;102376.56;;;34.75;33.66
78383;BME280;67668;52.294;4.692;2023-08-20T11:46:17;102387.09;;;34.83;33.91
78383;BME280;67668;52.294;4.692;2023-08-20T11:49:02;102387.09;;;34.88;33.93
78383;BME280;67668;52.294;4.692;2023-08-20T11:51:28;102379.69;;;34.94;33.58
78383;BME280;67668;52.294;4.692;2023-08-20T11:53:55;102374.53;;;35.02;34.16
78383;BME280;67668;52.294;4.692;2023-08-20T11:56:21;102376.78;;;35.10;32.89
78383;BME280;67668;52.294;4.692;2023-08-20T11:58:50;102378.97;;;35.08;32.61
78383;BME280;67668;52.294;4.692;2023-08-20T12:01:20;102380.63;;;35.09;33.03
78383;BME280;67668;52.294;4.692;2023-08-20T12:03:45;102380.94;;;35.13;32.65
78383;BME280;67668;52.294;4.692;2023-08-20T12:06:20;102391.66;;;35.14;32.72
78383;BME280;67668;52.294;4.692;2023-08-20T12:08:47;102390.59;;;35.15;31.60
78383;BME280;67668;52.294;4.692;2023-08-20T12:11:13;102393.09;;;35.22;31.07
78383;BME280;67668;52.294;4.692;2023-08-20T12:13:38;102400.81;;;35.25;32.36
78383;BME280;67668;52.294;4.692;2023-08-20T12:16:04;102400.81;;;35.25;31.40
78383;BME280;67668;52.294;4.692;2023-08-20T12:18:29;102408.28;;;35.30;32.40
78383;BME280;67668;52.294;4.692;2023-08-20T12:20:55;102403.06;;;35.33;33.08
78383;BME280;67668;52.294;4.692;2023-08-20T12:23:21;102398.09;;;35.40;32.81
78383;BME280;67668;52.294;4.692;2023-08-20T12:25:50;102397.59;;;35.43;32.04
78383;BME280;67668;52.294;4.692;2023-08-20T12:28:15;102401.97;;;35.39;32.47
78383;BME280;67668;52.294;4.692;2023-08-20T12:30:41;102398.09;;;35.40;32.99
78383;BME280;67668;52.294;4.692;2023-08-20T12:33:07;102394.56;;;35.40;31.91
78383;BME280;67668;52.294;4.692;2023-08-20T12:35:34;102407.19;;;35.36;32.14
78383;BME280;67668;52.294;4.692;2023-08-20T12:38:00;102400.03;;;35.35;32.69
78383;BME280;67668;52.294;4.692;2023-08-20T12:40:28;102407.19;;;35.36;32.35
78383;BME280;67668;52.294;4.692;2023-08-20T12:42:53;102404.44;;;35.41;33.49
78383;BME280;67668;52.294;4.692;2023-08-20T12:45:19;102408.31;;;35.40;32.03
78383;BME280;67668;52.294;4.692;2023-08-20T12:47:45;102407.75;;;35.33;31.06
78383;BME280;67668;52.294;4.692;2023-08-20T12:50:10;102406.06;;;35.32;32.50
78383;BME280;67668;52.294;4.692;2023-08-20T12:52:38;102402.22;;;35.38;32.76
78383;BME280;67668;52.294;4.692;2023-08-20T12:55:04;102405.56;;;35.45;31.81
78383;BME280;67668;52.294;4.692;2023-08-20T12:57:29;102403.66;;;35.50;32.83
78383;BME280;67668;52.294;4.692;2023-08-20T12:59:55;102399.50;;;35.48;31.99